createdAt,value
2023-04-15T00:01:05.940Z,92.00
2023-04-15T00:03:34.485Z,92.09
2023-04-15T00:06:01.673Z,92.23
2023-04-15T00:08:28.934Z,92.23
2023-04-15T00:10:55.573Z,92.23
2023-04-15T00:13:22.145Z,92.09
2023-04-15T00:15:48.706Z,92.27
2023-04-15T00:18:15.292Z,91.66
2023-04-15T00:20:41.860Z,91.75
2023-04-15T00:23:08.565Z,91.80
2023-04-15T00:25:35.174Z,92.04
2023-04-15T00:28:01.746Z,92.03
2023-04-15T00:30:28.397Z,92.23
2023-04-15T00:32:55.357Z,92.46
2023-04-15T00:35:22.496Z,92.36
2023-04-15T00:37:51.593Z,92.04
2023-04-15T00:40:20.938Z,92.40
2023-04-15T00:42:47.934Z,92.46
2023-04-15T00:45:14.638Z,92.43
2023-04-15T00:47:43.259Z,92.03
2023-04-15T00:50:11.162Z,92.29
2023-04-15T00:52:39.053Z,92.43
2023-04-15T00:55:06.635Z,92.37
2023-04-15T00:57:33.536Z,92.57
2023-04-15T01:00:01.059Z,92.06
2023-04-15T01:02:28.118Z,91.75
2023-04-15T01:04:54.856Z,91.43
2023-04-15T01:07:21.448Z,91.65
2023-04-15T01:09:48.110Z,91.74
2023-04-15T01:12:16.605Z,91.96
2023-04-15T01:14:43.552Z,92.01
2023-04-15T01:17:10.225Z,92.38
2023-04-15T01:19:37.193Z,91.80
2023-04-15T01:22:05.290Z,92.18
2023-04-15T01:24:33.229Z,91.98
2023-04-15T01:27:00.027Z,92.03
2023-04-15T01:29:27.477Z,92.22
2023-04-15T01:31:55.929Z,92.21
2023-04-15T01:34:25.900Z,92.12
2023-04-15T01:36:53.936Z,92.57
2023-04-15T01:39:21.733Z,92.45
2023-04-15T01:41:48.601Z,92.06
2023-04-15T01:44:16.463Z,91.85
2023-04-15T01:46:43.144Z,91.77
2023-04-15T01:49:09.746Z,91.63
2023-04-15T01:51:36.369Z,91.68
2023-04-15T01:54:03.149Z,91.38
2023-04-15T01:56:30.109Z,91.59
2023-04-15T01:58:57.005Z,91.96
2023-04-15T02:01:23.994Z,92.35
2023-04-15T02:03:50.779Z,92.36
2023-04-15T02:06:18.378Z,92.33
2023-04-15T02:08:45.182Z,92.39
2023-04-15T02:11:11.960Z,92.89
2023-04-15T02:13:38.641Z,92.61
2023-04-15T02:16:16.584Z,92.35
2023-04-15T02:18:47.531Z,92.65
2023-04-15T02:21:14.636Z,92.86
2023-04-15T02:23:41.480Z,92.96
2023-04-15T02:26:08.290Z,92.59
2023-04-15T02:28:35.089Z,92.69
2023-04-15T02:31:06.509Z,92.64
2023-04-15T02:33:33.571Z,92.37
2023-04-15T02:36:01.043Z,92.62
2023-04-15T02:38:28.325Z,92.44
2023-04-15T02:40:55.448Z,92.61
2023-04-15T02:43:22.114Z,92.70
2023-04-15T02:45:50.273Z,92.36
2023-04-15T02:48:19.391Z,92.41
2023-04-15T02:50:47.129Z,92.23
2023-04-15T02:53:15.436Z,92.19
2023-04-15T02:55:42.932Z,92.33
2023-04-15T02:58:09.796Z,92.67
2023-04-15T03:00:36.617Z,92.32
2023-04-15T03:03:05.704Z,91.94
2023-04-15T03:05:32.669Z,91.84
2023-04-15T03:08:01.361Z,92.18
2023-04-15T03:10:28.462Z,92.52
2023-04-15T03:12:55.071Z,92.61
2023-04-15T03:15:23.554Z,92.87
2023-04-15T03:17:52.307Z,92.62
2023-04-15T03:20:19.602Z,92.54
2023-04-15T03:22:47.510Z,92.59
2023-04-15T03:25:14.235Z,92.67
2023-04-15T03:27:41.986Z,92.73
2023-04-15T03:30:09.323Z,92.75
2023-04-15T03:32:37.999Z,93.13
2023-04-15T03:35:06.705Z,93.04
2023-04-15T03:37:33.292Z,93.21
2023-04-15T03:39:59.863Z,93.13
2023-04-15T03:42:27.062Z,93.16
2023-04-15T03:44:53.696Z,93.18
2023-04-15T03:47:20.461Z,93.35
2023-04-15T03:49:47.022Z,93.60
2023-04-15T03:52:13.573Z,93.22
2023-04-15T03:54:40.186Z,93.26
2023-04-15T03:57:06.924Z,92.79
2023-04-15T03:59:33.524Z,93.33
2023-04-15T04:02:00.250Z,93.27
2023-04-15T04:04:27.061Z,92.75
2023-04-15T04:06:53.716Z,92.85
2023-04-15T04:09:20.627Z,92.70
2023-04-15T04:11:47.202Z,92.85
2023-04-15T04:14:13.805Z,92.92
2023-04-15T04:16:40.636Z,92.79
2023-04-15T04:19:07.653Z,92.84
2023-04-15T04:21:34.308Z,92.23
2023-04-15T04:24:01.054Z,92.66
2023-04-15T04:26:27.811Z,92.42
2023-04-15T04:28:54.383Z,92.46
2023-04-15T04:31:21.259Z,92.58
2023-04-15T04:33:47.795Z,92.65
2023-04-15T04:36:14.398Z,92.56
2023-04-15T04:38:41.010Z,92.53
2023-04-15T04:41:07.608Z,92.45
2023-04-15T04:43:34.172Z,92.93
2023-04-15T04:46:00.776Z,92.73
2023-04-15T04:48:27.505Z,92.65
2023-04-15T04:50:54.284Z,93.08
2023-04-15T04:53:21.131Z,92.63
2023-04-15T04:55:47.698Z,92.54
2023-04-15T04:58:14.265Z,92.60
2023-04-15T05:00:41.185Z,92.62
2023-04-15T05:03:08.080Z,92.98
2023-04-15T05:05:36.842Z,92.82
2023-04-15T05:08:03.467Z,93.02
2023-04-15T05:10:30.129Z,93.44
2023-04-15T05:12:57.679Z,93.09
2023-04-15T05:15:24.626Z,93.00
2023-04-15T05:17:51.654Z,92.75
2023-04-15T05:20:18.399Z,93.01
2023-04-15T05:22:45.045Z,93.52
2023-04-15T05:25:12.406Z,93.25
2023-04-15T05:27:38.955Z,93.07
2023-04-15T05:30:07.209Z,93.27
2023-04-15T05:32:33.900Z,93.05
2023-04-15T05:35:01.090Z,92.88
2023-04-15T05:37:27.708Z,92.90
2023-04-15T05:39:54.333Z,92.74
2023-04-15T05:42:21.002Z,93.09
2023-04-15T05:44:47.623Z,92.70
2023-04-15T05:47:14.292Z,92.82
2023-04-15T05:49:41.251Z,92.47
2023-04-15T05:52:07.798Z,92.62
2023-04-15T05:54:34.487Z,93.13
2023-04-15T05:57:01.754Z,92.80
2023-04-15T05:59:28.704Z,93.57
2023-04-15T06:01:55.376Z,93.25
2023-04-15T06:04:22.863Z,93.00
2023-04-15T06:06:49.629Z,92.72
2023-04-15T06:09:16.864Z,92.92
2023-04-15T06:11:43.476Z,92.82
2023-04-15T06:14:10.162Z,93.23
2023-04-15T06:16:37.475Z,93.02
2023-04-15T06:19:04.254Z,93.20
2023-04-15T06:21:31.636Z,93.55
2023-04-15T06:24:01.447Z,93.36
2023-04-15T06:26:28.313Z,93.42
2023-04-15T06:28:54.998Z,93.68
2023-04-15T06:31:21.681Z,93.08
2023-04-15T06:33:48.356Z,93.33
2023-04-15T06:36:15.458Z,93.53
2023-04-15T06:38:42.151Z,93.44
2023-04-15T06:41:09.074Z,92.82
2023-04-15T06:43:35.716Z,92.88
2023-04-15T06:46:02.421Z,92.13
2023-04-15T06:48:30.270Z,92.08
2023-04-15T06:50:58.291Z,92.39
2023-04-15T06:53:30.513Z,92.09
2023-04-15T06:55:57.054Z,92.17
2023-04-15T06:58:23.692Z,92.29
2023-04-15T07:00:50.405Z,91.33
2023-04-15T07:03:17.750Z,91.45
2023-04-15T07:05:44.835Z,92.12
2023-04-15T07:08:11.431Z,92.33
2023-04-15T07:10:38.163Z,92.06
2023-04-15T07:13:05.787Z,92.08
2023-04-15T07:15:32.411Z,92.32
2023-04-15T07:18:00.435Z,91.99
2023-04-15T07:20:27.286Z,91.98
2023-04-15T07:22:53.946Z,92.17
2023-04-15T07:25:20.830Z,91.96
2023-04-15T07:27:47.539Z,92.01
2023-04-15T07:30:14.139Z,92.29
2023-04-15T07:32:41.809Z,91.63
2023-04-15T07:35:09.675Z,91.20
2023-04-15T07:37:36.651Z,91.22
2023-04-15T07:40:04.947Z,91.95
2023-04-15T07:42:31.573Z,92.06
2023-04-15T07:44:58.202Z,92.16
2023-04-15T07:47:24.897Z,92.14
2023-04-15T07:49:52.980Z,91.84
2023-04-15T07:52:19.563Z,91.17
2023-04-15T07:54:46.203Z,91.25
2023-04-15T07:57:13.847Z,91.38
2023-04-15T07:59:40.465Z,91.25
2023-04-15T08:02:07.771Z,91.67
2023-04-15T08:04:35.693Z,90.35
2023-04-15T08:07:02.886Z,90.44
2023-04-15T08:09:31.144Z,90.56
2023-04-15T08:11:58.098Z,90.94
2023-04-15T08:14:24.698Z,90.85
2023-04-15T08:16:51.505Z,90.54
2023-04-15T08:19:18.047Z,89.78
2023-04-15T08:21:44.758Z,90.35
2023-04-15T08:24:11.571Z,90.52
2023-04-15T08:26:38.205Z,89.44
2023-04-15T08:29:05.086Z,88.87
2023-04-15T08:31:32.045Z,88.28
2023-04-15T08:33:59.385Z,88.49
2023-04-15T08:36:27.026Z,88.86
2023-04-15T08:38:53.629Z,87.66
2023-04-15T08:41:25.580Z,86.94
2023-04-15T08:44:02.601Z,87.11
2023-04-15T08:46:31.471Z,87.00
2023-04-15T08:48:58.897Z,87.26
2023-04-15T08:51:27.170Z,87.51
2023-04-15T08:53:55.209Z,87.47
2023-04-15T08:56:26.985Z,87.01
2023-04-15T08:58:53.818Z,86.34
2023-04-15T09:01:21.145Z,86.09
2023-04-15T09:03:50.458Z,86.97
2023-04-15T09:06:18.375Z,88.01
2023-04-15T09:08:45.128Z,87.54
2023-04-15T09:11:12.290Z,87.67
2023-04-15T09:13:39.204Z,87.71
2023-04-15T09:16:06.675Z,87.45
2023-04-15T09:18:34.851Z,87.32
2023-04-15T09:21:11.735Z,87.91
2023-04-15T09:23:41.191Z,86.46
2023-04-15T09:26:08.353Z,88.57
2023-04-15T09:28:42.442Z,87.79
2023-04-15T09:31:10.399Z,87.43
2023-04-15T09:33:55.808Z,86.11
2023-04-15T09:36:22.575Z,85.85
2023-04-15T09:38:57.233Z,86.54
2023-04-15T09:41:25.720Z,85.70
2023-04-15T09:43:52.600Z,85.02
2023-04-15T09:46:19.473Z,85.23
2023-04-15T09:48:46.233Z,85.43
2023-04-15T09:51:13.029Z,86.23
2023-04-15T09:53:39.630Z,84.99
2023-04-15T09:56:07.969Z,84.62
2023-04-15T09:58:36.116Z,85.55
2023-04-15T10:01:06.373Z,85.99
2023-04-15T10:03:36.858Z,86.34
2023-04-15T10:06:04.126Z,86.32
2023-04-15T10:08:33.671Z,86.53
2023-04-15T10:11:02.368Z,85.33
2023-04-15T10:13:33.349Z,85.37
2023-04-15T10:16:06.404Z,85.90
2023-04-15T10:18:36.194Z,85.60
2023-04-15T10:21:02.808Z,86.11
2023-04-15T10:23:29.356Z,84.81
2023-04-15T10:25:57.521Z,84.69
2023-04-15T10:28:24.875Z,85.48
2023-04-15T10:30:53.436Z,86.25
2023-04-15T10:33:23.220Z,85.27
2023-04-15T10:35:53.085Z,85.63
2023-04-15T10:38:43.130Z,85.60
2023-04-15T10:41:23.641Z,84.97
2023-04-15T10:44:16.743Z,85.09
2023-04-15T10:46:47.330Z,83.72
2023-04-15T10:49:15.211Z,81.52
2023-04-15T10:51:47.620Z,83.16
2023-04-15T10:54:32.142Z,82.92
2023-04-15T10:57:01.918Z,83.06
2023-04-15T10:59:32.827Z,81.87
2023-04-15T11:02:05.933Z,81.61
2023-04-15T11:04:55.463Z,80.41
2023-04-15T11:07:40.726Z,82.16
2023-04-15T11:10:13.477Z,81.70
2023-04-15T11:12:41.953Z,82.06
2023-04-15T11:15:33.134Z,82.16
2023-04-15T11:18:10.337Z,79.54
2023-04-15T11:20:38.361Z,79.17
2023-04-15T11:23:13.938Z,80.00
2023-04-15T11:25:43.608Z,81.01
2023-04-15T11:28:11.963Z,80.08
2023-04-15T11:30:40.050Z,80.30
2023-04-15T11:33:09.590Z,79.86
2023-04-15T11:35:36.394Z,81.55
2023-04-15T11:38:04.530Z,81.13
2023-04-15T11:40:33.387Z,79.22
2023-04-15T11:43:12.467Z,79.66
2023-04-15T11:46:00.417Z,80.09
2023-04-15T11:48:32.810Z,77.80
2023-04-15T11:51:06.965Z,79.27
2023-04-15T11:53:37.157Z,79.56
2023-04-15T11:56:03.974Z,78.95
2023-04-15T11:58:30.527Z,79.01
2023-04-15T12:01:00.274Z,78.39
2023-04-15T12:03:29.359Z,79.47
2023-04-15T12:06:11.849Z,78.20
2023-04-15T12:08:51.116Z,78.43
2023-04-15T12:11:17.989Z,77.96
2023-04-15T12:13:46.160Z,75.96
2023-04-15T12:16:12.791Z,77.28
2023-04-15T12:18:39.482Z,77.57
2023-04-15T12:21:12.226Z,75.31
2023-04-15T12:23:40.333Z,75.85
2023-04-15T12:26:07.741Z,73.63
2023-04-15T12:28:37.020Z,76.00
2023-04-15T12:31:10.617Z,76.60
2023-04-15T12:33:37.745Z,74.40
2023-04-15T12:36:04.684Z,73.99
2023-04-15T12:38:34.371Z,72.54
2023-04-15T12:41:01.211Z,75.10
2023-04-15T12:43:27.830Z,74.11
2023-04-15T12:45:56.736Z,74.83
2023-04-15T12:48:23.458Z,74.81
2023-04-15T12:50:50.104Z,75.57
2023-04-15T12:53:17.721Z,74.81
2023-04-15T12:55:44.286Z,77.67
2023-04-15T12:58:12.050Z,77.69
2023-04-15T13:00:39.001Z,76.17
2023-04-15T13:03:07.059Z,75.92
2023-04-15T13:05:34.090Z,76.88
2023-04-15T13:08:00.898Z,76.03
2023-04-15T13:10:28.308Z,75.27
2023-04-15T13:12:56.583Z,75.72
2023-04-15T13:15:23.581Z,74.31
2023-04-15T13:17:50.557Z,74.38
2023-04-15T13:20:17.518Z,75.46
2023-04-15T13:22:44.245Z,75.17
2023-04-15T13:25:10.827Z,74.84
2023-04-15T13:27:37.564Z,73.77
2023-04-15T13:30:05.519Z,73.18
2023-04-15T13:32:32.219Z,74.55
2023-04-15T13:34:59.395Z,74.12
2023-04-15T13:37:27.957Z,74.28
2023-04-15T13:39:56.254Z,73.45
2023-04-15T13:42:24.496Z,69.41
2023-04-15T13:44:51.655Z,71.63
2023-04-15T13:47:19.704Z,69.37
2023-04-15T13:49:46.345Z,69.77
2023-04-15T13:52:12.991Z,69.44
2023-04-15T13:54:39.865Z,66.62
2023-04-15T13:57:07.016Z,67.54
2023-04-15T13:59:35.010Z,68.36
2023-04-15T14:02:02.303Z,68.72
2023-04-15T14:04:29.048Z,68.81
2023-04-15T14:06:56.351Z,69.66
2023-04-15T14:09:26.202Z,66.59
2023-04-15T14:11:53.163Z,66.94
2023-04-15T14:14:19.773Z,66.65
2023-04-15T14:16:46.537Z,66.13
2023-04-15T14:19:13.189Z,66.99
2023-04-15T14:21:40.507Z,67.54
2023-04-15T14:24:07.117Z,68.50
2023-04-15T14:26:34.510Z,66.87
2023-04-15T14:29:01.121Z,68.93
2023-04-15T14:31:27.718Z,66.92
2023-04-15T14:33:54.407Z,67.84
2023-04-15T14:36:21.021Z,66.52
2023-04-15T14:38:48.700Z,67.71
2023-04-15T14:41:16.153Z,70.63
2023-04-15T14:43:42.820Z,70.44
2023-04-15T14:46:10.936Z,66.59
2023-04-15T14:48:37.759Z,64.59
2023-04-15T14:51:04.495Z,65.16
2023-04-15T14:53:31.244Z,66.09
2023-04-15T14:55:58.301Z,66.61
2023-04-15T14:58:25.358Z,67.94
2023-04-15T15:00:52.036Z,70.60
2023-04-15T15:03:18.954Z,66.98
2023-04-15T15:05:46.990Z,67.69
2023-04-15T15:08:14.338Z,67.57
2023-04-15T15:10:48.559Z,67.65
2023-04-15T15:13:17.508Z,69.76
2023-04-15T15:15:44.233Z,69.04
2023-04-15T15:18:11.508Z,67.75
2023-04-15T15:20:38.291Z,67.67
2023-04-15T15:23:05.026Z,67.69
2023-04-15T15:25:32.077Z,67.46
2023-04-15T15:27:58.702Z,70.93
2023-04-15T15:30:25.483Z,71.14
2023-04-15T15:32:52.194Z,70.94
2023-04-15T15:35:18.935Z,69.21
2023-04-15T15:37:46.031Z,69.66
2023-04-15T15:40:12.944Z,70.81
2023-04-15T15:42:39.726Z,70.38
2023-04-15T15:45:07.003Z,69.92
2023-04-15T15:47:33.726Z,71.02
2023-04-15T15:50:02.590Z,70.19
2023-04-15T15:52:30.296Z,71.05
2023-04-15T15:54:56.968Z,69.92
2023-04-15T15:57:23.540Z,69.84
2023-04-15T15:59:53.099Z,70.11
2023-04-15T16:02:45.855Z,70.90
2023-04-15T16:05:12.525Z,72.50
2023-04-15T16:07:39.937Z,73.35
2023-04-15T16:10:07.197Z,72.53
2023-04-15T16:12:35.065Z,73.82
2023-04-15T16:15:01.948Z,73.30
2023-04-15T16:17:29.794Z,73.66
2023-04-15T16:20:00.728Z,73.95
2023-04-15T16:22:28.245Z,74.36
2023-04-15T16:24:55.851Z,74.39
2023-04-15T16:27:23.469Z,73.02
2023-04-15T16:29:50.148Z,71.56
2023-04-15T16:32:16.848Z,72.68
2023-04-15T16:34:43.492Z,73.70
2023-04-15T16:37:10.226Z,73.07
2023-04-15T16:39:37.370Z,74.61
2023-04-15T16:42:04.154Z,74.87
2023-04-15T16:44:30.853Z,76.13
2023-04-15T16:46:57.683Z,74.68
2023-04-15T16:49:24.249Z,75.07
2023-04-15T16:51:51.421Z,75.59
2023-04-15T16:54:19.282Z,74.09
2023-04-15T16:56:46.145Z,74.53
2023-04-15T16:59:12.958Z,74.86
2023-04-15T17:01:40.129Z,75.56
2023-04-15T17:04:08.162Z,76.15
2023-04-15T17:06:34.870Z,75.93
2023-04-15T17:09:01.607Z,76.43
2023-04-15T17:11:28.421Z,76.52
2023-04-15T17:13:55.208Z,77.54
2023-04-15T17:16:21.930Z,78.06
2023-04-15T17:18:50.275Z,79.05
2023-04-15T17:21:17.661Z,79.68
2023-04-15T17:23:44.473Z,78.44
2023-04-15T17:26:11.418Z,78.35
2023-04-15T17:28:38.056Z,78.56
2023-04-15T17:31:05.186Z,79.75
2023-04-15T17:34:03.017Z,79.74
2023-04-15T17:36:18.584Z,80.58
2023-04-15T17:38:45.680Z,80.77
2023-04-15T17:41:12.475Z,80.48
2023-04-15T17:43:39.217Z,81.02
2023-04-15T17:46:08.935Z,81.40
2023-04-15T17:48:35.815Z,82.43
2023-04-15T17:51:02.840Z,82.50
2023-04-15T17:53:29.485Z,82.54
2023-04-15T17:55:57.710Z,82.56
2023-04-15T17:58:24.335Z,82.97
2023-04-15T18:00:51.095Z,83.19
2023-04-15T18:03:17.873Z,83.45
2023-04-15T18:05:44.836Z,83.49
2023-04-15T18:08:11.558Z,83.45
2023-04-15T18:10:38.858Z,83.43
2023-04-15T18:13:06.064Z,83.71
2023-04-15T18:15:33.303Z,83.72
2023-04-15T18:18:00.496Z,84.14
2023-04-15T18:20:27.853Z,84.25
2023-04-15T18:22:55.677Z,84.32
2023-04-15T18:25:22.293Z,84.35
2023-04-15T18:27:49.314Z,84.64
2023-04-15T18:30:16.317Z,84.31
2023-04-15T18:32:43.320Z,83.73
2023-04-15T18:35:10.176Z,83.03
2023-04-15T18:37:36.877Z,81.65
2023-04-15T18:40:03.814Z,81.39
2023-04-15T18:42:30.469Z,81.36
2023-04-15T18:44:57.235Z,82.17
2023-04-15T18:47:26.899Z,82.67
2023-04-15T18:49:54.047Z,82.98
2023-04-15T18:52:20.989Z,82.83
2023-04-15T18:54:47.590Z,82.52
2023-04-15T18:57:14.205Z,83.12
2023-04-15T18:59:47.155Z,83.08
2023-04-15T19:02:13.724Z,83.09
2023-04-15T19:04:40.398Z,83.57
2023-04-15T19:07:07.809Z,84.40
2023-04-15T19:09:34.422Z,84.44
2023-04-15T19:12:01.729Z,84.33
2023-04-15T19:14:28.550Z,84.87
2023-04-15T19:16:55.363Z,84.99
2023-04-15T19:19:22.155Z,84.20
2023-04-15T19:21:50.320Z,84.59
2023-04-15T19:24:18.201Z,84.22
2023-04-15T19:26:48.449Z,84.97
2023-04-15T19:29:15.086Z,85.09
2023-04-15T19:31:41.822Z,85.67
2023-04-15T19:34:08.428Z,85.61
2023-04-15T19:36:35.359Z,86.04
2023-04-15T19:39:02.404Z,85.98
2023-04-15T19:41:29.838Z,86.13
2023-04-15T19:43:56.692Z,86.50
2023-04-15T19:46:23.670Z,85.87
2023-04-15T19:48:50.307Z,86.14
2023-04-15T19:51:16.927Z,86.01
2023-04-15T19:53:43.829Z,86.45
2023-04-15T19:56:10.962Z,86.65
2023-04-15T19:58:37.761Z,87.00
2023-04-15T20:01:04.472Z,87.05
2023-04-15T20:03:31.459Z,87.25
2023-04-15T20:05:58.220Z,87.26
2023-04-15T20:08:25.018Z,87.49
2023-04-15T20:10:51.617Z,87.72
2023-04-15T20:13:18.247Z,87.94
2023-04-15T20:15:44.940Z,87.77
2023-04-15T20:18:11.582Z,88.13
2023-04-15T20:20:39.691Z,88.04
2023-04-15T20:23:06.687Z,88.44
2023-04-15T20:25:33.305Z,88.42
2023-04-15T20:28:01.089Z,88.21
2023-04-15T20:30:29.151Z,88.58
2023-04-15T20:32:56.138Z,88.71
2023-04-15T20:35:22.977Z,88.56
2023-04-15T20:37:49.680Z,88.60
2023-04-15T20:40:16.291Z,88.75
2023-04-15T20:42:43.690Z,88.60
2023-04-15T20:45:10.644Z,89.06
2023-04-15T20:47:37.503Z,88.39
2023-04-15T20:50:04.525Z,88.31
2023-04-15T20:52:31.112Z,88.47
2023-04-15T20:54:57.709Z,88.56
2023-04-15T20:57:27.038Z,88.94
2023-04-15T20:59:53.698Z,88.47
2023-04-15T21:02:20.555Z,88.58
2023-04-15T21:04:47.268Z,88.73
2023-04-15T21:07:14.718Z,88.75
2023-04-15T21:09:42.975Z,88.55
2023-04-15T21:12:11.105Z,88.48
2023-04-15T21:14:39.432Z,88.34
2023-04-15T21:17:11.161Z,88.42
2023-04-15T21:19:38.751Z,88.53
2023-04-15T21:22:05.549Z,89.09
2023-04-15T21:24:32.162Z,88.74
2023-04-15T21:26:58.809Z,88.18
2023-04-15T21:29:25.985Z,87.72
2023-04-15T21:31:52.639Z,87.21
2023-04-15T21:34:19.275Z,87.02
2023-04-15T21:36:46.048Z,87.30
2023-04-15T21:39:12.670Z,87.64
2023-04-15T21:41:39.223Z,87.70
2023-04-15T21:44:06.034Z,88.12
2023-04-15T21:46:35.264Z,88.45
2023-04-15T21:49:02.977Z,87.83
2023-04-15T21:51:29.635Z,87.98
2023-04-15T21:53:56.254Z,88.14
2023-04-15T21:56:24.229Z,88.06
2023-04-15T21:58:54.187Z,88.22
2023-04-15T22:01:21.068Z,88.59
2023-04-15T22:03:47.989Z,88.60
2023-04-15T22:06:14.691Z,88.78
2023-04-15T22:08:53.118Z,89.09
2023-04-15T22:11:26.961Z,88.53
2023-04-15T22:13:54.653Z,88.60
2023-04-15T22:16:21.401Z,88.96
2023-04-15T22:18:48.164Z,88.90
2023-04-15T22:21:15.018Z,88.90
2023-04-15T22:23:41.687Z,88.92
2023-04-15T22:26:08.325Z,88.75
2023-04-15T22:28:34.975Z,88.87
2023-04-15T22:31:02.340Z,88.67
2023-04-15T22:33:29.349Z,88.35
2023-04-15T22:35:57.101Z,88.43
2023-04-15T22:38:24.589Z,88.57
2023-04-15T22:40:53.837Z,88.61
2023-04-15T22:43:20.493Z,88.53
2023-04-15T22:45:50.729Z,88.78
2023-04-15T22:48:18.501Z,89.12
2023-04-15T22:50:45.216Z,88.73
2023-04-15T22:53:12.182Z,88.11
2023-04-15T22:55:38.767Z,87.97
2023-04-15T22:58:05.531Z,88.11
2023-04-15T23:00:32.172Z,88.63
2023-04-15T23:02:58.890Z,88.53
2023-04-15T23:05:25.609Z,88.81
2023-04-15T23:07:52.284Z,88.70
2023-04-15T23:10:18.841Z,88.77
2023-04-15T23:12:45.560Z,88.91
2023-04-15T23:15:12.086Z,88.06
2023-04-15T23:17:38.863Z,88.29
2023-04-15T23:20:06.838Z,88.33
2023-04-15T23:22:37.451Z,88.09
2023-04-15T23:25:04.716Z,87.87
2023-04-15T23:27:31.384Z,88.09
2023-04-15T23:29:58.002Z,88.35
2023-04-15T23:32:24.589Z,88.60
2023-04-15T23:34:52.209Z,88.88
2023-04-15T23:37:19.061Z,88.92
2023-04-15T23:39:45.730Z,88.60
2023-04-15T23:42:12.677Z,88.45
2023-04-15T23:44:39.254Z,88.62
2023-04-15T23:47:05.971Z,89.07
2023-04-15T23:49:32.719Z,88.88
2023-04-15T23:51:59.308Z,89.11
2023-04-15T23:54:25.915Z,88.97
2023-04-15T23:56:52.480Z,88.59
2023-04-15T23:59:19.135Z,89.04
